Terminal Aerodrome Forecast
Issued by NWS

Home | Current Version | Previous Version | Text Only | Print | Product List | Glossary On
Versions: 1 2 3 4 5 6 7 8 9 10 11 12 13 14
000
FTUS46 KSEW 260521
TAFBLI
TAF
KBLI 260521Z 2606/2706 17006KT P6SM FEW100
     FM261200 17008KT P6SM SCT015 BKN025 OVC060
     FM261400 17011KT P6SM SCT012 BKN018 OVC030
     FM261800 17011KT P6SM SCT020 BKN035
     FM262100 17012KT P6SM SCT050
     FM270200 17006KT P6SM SCT050=

USA.gov is the U.S. government's official web portal to all federal, state and local government web resources and services.